createdAt,value
2022-09-18T00:00:06.964Z,1.15
2022-09-18T00:02:33.388Z,1.30
2022-09-18T00:04:59.845Z,1.30
2022-09-18T00:07:26.287Z,1.38
2022-09-18T00:09:52.684Z,1.23
2022-09-18T00:12:19.104Z,1.30
2022-09-18T00:14:45.459Z,1.10
2022-09-18T00:17:11.876Z,1.52
2022-09-18T00:19:38.266Z,1.17
2022-09-18T00:22:04.774Z,1.30
2022-09-18T00:24:31.172Z,1.20
2022-09-18T00:26:57.629Z,1.20
2022-09-18T00:29:24.064Z,1.00
2022-09-18T00:31:50.510Z,1.33
2022-09-18T00:34:17.242Z,1.17
2022-09-18T00:36:43.959Z,1.08
2022-09-18T00:39:10.788Z,1.10
2022-09-18T00:41:39.637Z,3.83
2022-09-18T00:44:32.607Z,21.77
2022-09-18T00:47:15.481Z,15.73
2022-09-18T00:49:51.005Z,10.80
2022-09-18T00:52:20.244Z,6.30
2022-09-18T00:54:50.861Z,2.33
2022-09-18T00:57:22.188Z,1.25
2022-09-18T00:59:51.344Z,1.17
2022-09-18T01:02:18.557Z,1.70
2022-09-18T01:04:45.637Z,7.53
2022-09-18T01:07:42.364Z,13.88
2022-09-18T01:10:19.576Z,17.33
2022-09-18T01:12:54.998Z,15.77
2022-09-18T01:15:47.243Z,16.05
2022-09-18T01:18:25.791Z,15.60
2022-09-18T01:20:54.926Z,23.60
2022-09-18T01:23:49.329Z,7.80
2022-09-18T01:26:51.224Z,2.40
2022-09-18T01:29:39.392Z,3.30
2022-09-18T01:32:14.604Z,8.33
2022-09-18T01:35:18.761Z,20.73
2022-09-18T01:38:00.767Z,12.25
2022-09-18T01:40:34.683Z,6.63
2022-09-18T01:43:05.279Z,1.80
2022-09-18T01:45:35.505Z,1.40
2022-09-18T01:48:06.644Z,1.30
2022-09-18T01:50:38.102Z,1.55
2022-09-18T01:53:17.841Z,1.40
2022-09-18T01:55:50.561Z,1.60
2022-09-18T01:58:18.815Z,1.10
2022-09-18T02:00:50.650Z,1.58
2022-09-18T02:03:27.756Z,1.50
2022-09-18T02:06:04.419Z,1.40
2022-09-18T02:08:43.713Z,1.35
2022-09-18T02:11:15.502Z,1.40
2022-09-18T02:13:57.839Z,1.33
2022-09-18T02:17:03.278Z,1.60
2022-09-18T02:19:45.727Z,1.40
2022-09-18T02:22:17.446Z,1.60
2022-09-18T02:24:48.520Z,1.30
2022-09-18T02:27:16.533Z,1.35
2022-09-18T02:29:45.427Z,1.00
2022-09-18T02:32:13.097Z,0.95
2022-09-18T02:34:42.283Z,1.00
2022-09-18T02:37:21.973Z,1.13
2022-09-18T02:40:00.444Z,0.90
2022-09-18T02:42:26.846Z,1.00
2022-09-18T02:45:30.453Z,0.90
2022-09-18T02:48:24.920Z,1.00
2022-09-18T02:51:28.882Z,1.00
2022-09-18T02:54:45.597Z,0.80
2022-09-18T02:57:20.657Z,0.90
2022-09-18T02:59:54.749Z,0.90
2022-09-18T03:02:22.733Z,1.33
2022-09-18T03:04:50.076Z,5.43
2022-09-18T03:07:17.317Z,3.65
2022-09-18T03:09:44.238Z,1.30
2022-09-18T03:12:11.316Z,1.00
2022-09-18T03:14:37.747Z,1.60
2022-09-18T03:17:04.344Z,1.63
2022-09-18T03:19:30.840Z,4.55
2022-09-18T03:21:57.306Z,11.32
2022-09-18T03:24:23.787Z,17.60
2022-09-18T03:26:51.773Z,14.77
2022-09-18T03:29:18.341Z,18.67
2022-09-18T03:31:44.844Z,19.05
2022-09-18T03:34:11.359Z,10.60
2022-09-18T03:36:37.791Z,6.00
2022-09-18T03:39:05.153Z,3.63
2022-09-18T03:41:31.836Z,1.83
2022-09-18T03:43:58.277Z,2.30
2022-09-18T03:46:24.721Z,1.90
2022-09-18T03:48:52.445Z,2.13
2022-09-18T03:51:19.928Z,2.15
2022-09-18T03:53:47.230Z,1.93
2022-09-18T03:56:15.123Z,1.75
2022-09-18T03:58:41.865Z,1.90
2022-09-18T04:01:08.889Z,1.85
2022-09-18T04:03:35.692Z,1.92
2022-09-18T04:06:02.114Z,1.43
2022-09-18T04:08:28.699Z,1.70
2022-09-18T04:10:55.086Z,1.30
2022-09-18T04:13:22.025Z,1.55
2022-09-18T04:15:48.458Z,1.30
2022-09-18T04:18:14.896Z,1.40
2022-09-18T04:20:41.270Z,1.13
2022-09-18T04:23:07.683Z,1.50
2022-09-18T04:25:34.393Z,1.10
2022-09-18T04:28:00.867Z,1.10
2022-09-18T04:30:27.261Z,1.53
2022-09-18T04:32:53.651Z,1.00
2022-09-18T04:35:20.126Z,1.23
2022-09-18T04:37:46.530Z,1.20
2022-09-18T04:40:13.259Z,1.60
2022-09-18T04:42:39.702Z,1.30
2022-09-18T04:45:06.721Z,1.30
2022-09-18T04:47:33.113Z,1.30
2022-09-18T04:49:59.489Z,1.50
2022-09-18T04:52:25.922Z,1.30
2022-09-18T04:54:52.397Z,1.40
2022-09-18T04:57:18.813Z,4.82
2022-09-18T04:59:45.226Z,5.47
2022-09-18T05:02:11.770Z,6.25
2022-09-18T05:04:38.289Z,4.13
2022-09-18T05:07:04.769Z,5.47
2022-09-18T05:09:31.383Z,6.20
2022-09-18T05:11:58.162Z,6.20
2022-09-18T05:14:24.638Z,5.57
2022-09-18T05:16:51.026Z,4.93
2022-09-18T05:19:17.395Z,4.83
2022-09-18T05:21:43.795Z,5.38
2022-09-18T05:24:10.396Z,3.50
2022-09-18T05:26:36.791Z,1.80
2022-09-18T05:29:03.266Z,1.65
2022-09-18T05:31:29.824Z,1.90
2022-09-18T05:33:56.212Z,1.75
2022-09-18T05:36:22.609Z,1.52
2022-09-18T05:38:49.013Z,1.70
2022-09-18T05:41:15.464Z,1.58
2022-09-18T05:43:44.300Z,1.43
2022-09-18T05:46:10.862Z,1.50
2022-09-18T05:48:37.666Z,1.70
2022-09-18T05:51:04.214Z,1.70
2022-09-18T05:53:30.545Z,1.52
2022-09-18T05:55:59.476Z,1.80
2022-09-18T05:58:25.880Z,1.55
2022-09-18T06:00:52.285Z,1.70
2022-09-18T06:03:18.707Z,1.52
2022-09-18T06:05:52.357Z,1.70
2022-09-18T06:08:19.061Z,1.57
2022-09-18T06:10:45.542Z,1.80
2022-09-18T06:13:17.344Z,1.77
2022-09-18T06:15:49.338Z,1.63
2022-09-18T06:18:15.778Z,1.83
2022-09-18T06:20:43.829Z,1.40
2022-09-18T06:23:11.907Z,1.80
2022-09-18T06:25:38.267Z,1.13
2022-09-18T06:28:05.002Z,1.40
2022-09-18T06:30:33.684Z,1.30
2022-09-18T06:33:02.292Z,1.20
2022-09-18T06:35:29.107Z,1.33
2022-09-18T06:37:55.520Z,1.58
2022-09-18T06:40:22.067Z,1.67
2022-09-18T06:42:48.639Z,2.30
2022-09-18T06:45:15.139Z,3.80
2022-09-18T06:47:41.533Z,6.22
2022-09-18T06:50:08.372Z,9.13
2022-09-18T06:52:34.788Z,9.98
2022-09-18T06:55:01.216Z,4.88
2022-09-18T06:57:27.687Z,2.90
2022-09-18T06:59:54.101Z,3.60
2022-09-18T07:02:20.581Z,2.67
2022-09-18T07:04:47.031Z,3.17
2022-09-18T07:07:13.518Z,2.58
2022-09-18T07:09:39.936Z,2.00
2022-09-18T07:12:06.522Z,2.10
2022-09-18T07:14:32.913Z,1.98
2022-09-18T07:16:59.255Z,1.80
2022-09-18T07:19:25.663Z,1.85
2022-09-18T07:21:52.735Z,1.70
2022-09-18T07:24:19.309Z,1.70
2022-09-18T07:26:45.780Z,1.52
2022-09-18T07:29:12.237Z,1.50
2022-09-18T07:31:38.707Z,1.80
2022-09-18T07:34:05.222Z,1.30
2022-09-18T07:36:31.611Z,1.52
2022-09-18T07:38:58.202Z,1.70
2022-09-18T07:41:24.737Z,1.60
2022-09-18T07:43:51.273Z,1.65
2022-09-18T07:46:17.816Z,1.40
2022-09-18T07:48:44.255Z,1.52
2022-09-18T07:51:10.932Z,1.92
2022-09-18T07:53:37.361Z,1.65
2022-09-18T07:56:11.369Z,1.80
2022-09-18T07:58:38.137Z,1.90
2022-09-18T08:01:05.637Z,1.50
2022-09-18T08:03:32.391Z,1.70
2022-09-18T08:05:59.210Z,1.75
2022-09-18T08:08:25.730Z,1.35
2022-09-18T08:10:52.324Z,1.40
2022-09-18T08:13:18.790Z,1.50
2022-09-18T08:15:45.200Z,1.63
2022-09-18T08:18:11.637Z,1.38
2022-09-18T08:20:38.291Z,1.30
2022-09-18T08:23:06.268Z,1.20
2022-09-18T08:25:33.103Z,1.30
2022-09-18T08:28:03.816Z,1.20
2022-09-18T08:30:30.631Z,1.10
2022-09-18T08:33:01.786Z,4.95
2022-09-18T08:35:29.640Z,2.63
2022-09-18T08:37:56.412Z,2.05
2022-09-18T08:40:37.996Z,1.90
2022-09-18T08:43:36.989Z,2.80
2022-09-18T08:46:14.870Z,4.38
2022-09-18T08:48:50.091Z,2.60
2022-09-18T08:51:26.022Z,3.40
2022-09-18T08:53:57.135Z,2.90
2022-09-18T08:56:25.502Z,1.60
2022-09-18T08:58:57.022Z,1.23
2022-09-18T09:01:32.590Z,1.10
2022-09-18T09:04:01.754Z,1.30
2022-09-18T09:06:46.787Z,1.40
2022-09-18T09:09:34.619Z,1.40
2022-09-18T09:12:19.941Z,1.30
2022-09-18T09:14:57.624Z,1.13
2022-09-18T09:17:40.299Z,1.02
2022-09-18T09:20:23.243Z,1.13
2022-09-18T09:23:05.266Z,0.90
2022-09-18T09:25:46.917Z,0.90
2022-09-18T09:28:23.398Z,0.90
2022-09-18T09:30:56.771Z,0.90
2022-09-18T09:33:39.129Z,1.50
2022-09-18T09:36:11.957Z,1.13
2022-09-18T09:38:38.368Z,2.50
2022-09-18T09:41:22.639Z,2.17
2022-09-18T09:43:54.714Z,1.30
2022-09-18T09:46:46.153Z,1.27
2022-09-18T09:49:28.331Z,1.55
2022-09-18T09:52:09.617Z,1.10
2022-09-18T09:54:36.285Z,1.10
2022-09-18T09:57:27.676Z,1.15
2022-09-18T10:00:07.474Z,1.40
2022-09-18T10:03:19.395Z,1.50
2022-09-18T10:06:15.440Z,1.92
2022-09-18T10:08:50.799Z,1.70
2022-09-18T10:11:17.358Z,1.70
2022-09-18T10:13:53.544Z,1.40
2022-09-18T10:16:27.750Z,1.30
2022-09-18T10:18:54.162Z,1.73
2022-09-18T10:21:24.679Z,4.33
2022-09-18T10:24:35.143Z,3.92
2022-09-18T10:27:10.780Z,3.13
2022-09-18T10:29:37.503Z,2.20
2022-09-18T10:32:04.755Z,2.00
2022-09-18T10:34:48.537Z,2.00
2022-09-18T10:37:26.811Z,1.60
2022-09-18T10:39:55.151Z,1.60
2022-09-18T10:42:24.227Z,2.08
2022-09-18T10:45:01.185Z,1.85
2022-09-18T10:47:36.434Z,1.50
2022-09-18T10:50:06.011Z,1.45
2022-09-18T10:52:36.442Z,1.80
2022-09-18T10:55:02.845Z,2.45
2022-09-18T10:57:33.706Z,2.00
2022-09-18T11:00:01.107Z,2.20
2022-09-18T11:02:33.256Z,1.60
2022-09-18T11:05:03.451Z,1.48
2022-09-18T11:07:29.933Z,1.77
2022-09-18T11:09:56.386Z,1.65
2022-09-18T11:12:25.514Z,1.40
2022-09-18T11:15:04.113Z,1.30
2022-09-18T11:17:34.977Z,1.30
2022-09-18T11:20:04.492Z,1.33
2022-09-18T11:22:35.360Z,1.50
2022-09-18T11:25:13.828Z,1.93
2022-09-18T11:27:48.110Z,1.73
2022-09-18T11:30:26.933Z,1.98
2022-09-18T11:33:00.159Z,2.10
2022-09-18T11:35:29.565Z,2.13
2022-09-18T11:37:59.505Z,2.40
2022-09-18T11:40:32.962Z,2.10
2022-09-18T11:43:00.452Z,2.38
2022-09-18T11:45:41.722Z,1.92
2022-09-18T11:48:49.443Z,2.40
2022-09-18T11:51:28.142Z,2.30
2022-09-18T11:54:05.491Z,2.50
2022-09-18T11:56:39.727Z,2.30
2022-09-18T11:59:19.281Z,2.53
2022-09-18T12:01:51.465Z,4.20
2022-09-18T12:04:55.879Z,2.73
2022-09-18T12:07:40.443Z,2.30
2022-09-18T12:10:33.511Z,2.35
2022-09-18T12:13:37.241Z,2.00
2022-09-18T12:16:16.035Z,2.30
2022-09-18T12:19:08.657Z,2.20
2022-09-18T12:21:50.877Z,3.72
2022-09-18T12:24:17.354Z,3.42
2022-09-18T12:27:06.680Z,2.47
2022-09-18T12:30:18.674Z,2.83
2022-09-18T12:33:30.161Z,2.50
2022-09-18T12:36:51.305Z,2.10
2022-09-18T12:39:27.332Z,1.70
2022-09-18T12:42:15.816Z,2.10
2022-09-18T12:45:10.177Z,3.10
2022-09-18T12:47:47.061Z,2.77
2022-09-18T12:50:21.537Z,2.60
2022-09-18T12:53:09.812Z,3.55
2022-09-18T12:56:01.344Z,3.38
2022-09-18T12:59:01.248Z,3.58
2022-09-18T13:01:35.031Z,3.00
2022-09-18T13:04:30.940Z,2.00
2022-09-18T13:07:22.647Z,3.13
2022-09-18T13:09:58.857Z,2.72
2022-09-18T13:12:48.698Z,2.58
2022-09-18T13:15:21.350Z,3.30
2022-09-18T13:17:57.128Z,3.47
2022-09-18T13:20:33.824Z,3.00
2022-09-18T13:23:00.987Z,2.33
2022-09-18T13:25:32.929Z,2.50
2022-09-18T13:28:03.411Z,2.97
2022-09-18T13:30:31.477Z,2.90
2022-09-18T13:32:59.550Z,2.38
2022-09-18T13:35:28.110Z,1.80
2022-09-18T13:38:14.774Z,1.90
2022-09-18T13:41:03.053Z,2.20
2022-09-18T13:43:29.431Z,1.73
2022-09-18T13:45:57.294Z,2.30
2022-09-18T13:48:30.905Z,1.75
2022-09-18T13:51:02.289Z,1.75
2022-09-18T13:54:08.963Z,4.37
2022-09-18T13:57:03.458Z,2.83
2022-09-18T13:59:45.044Z,4.50
2022-09-18T14:02:43.769Z,4.30
2022-09-18T14:05:38.730Z,3.20
2022-09-18T14:08:33.871Z,6.00
2022-09-18T14:11:17.606Z,7.07
2022-09-18T14:13:48.975Z,5.90
2022-09-18T14:16:21.361Z,8.38
2022-09-18T14:18:47.770Z,3.30
2022-09-18T14:21:17.245Z,3.57
2022-09-18T14:23:46.789Z,1.95
2022-09-18T14:26:31.123Z,1.75
2022-09-18T14:29:08.729Z,2.55
2022-09-18T14:31:41.240Z,2.30
2022-09-18T14:34:43.135Z,2.00
2022-09-18T14:37:18.607Z,2.03
2022-09-18T14:39:45.529Z,1.98
2022-09-18T14:42:21.380Z,1.95
2022-09-18T14:44:50.745Z,2.40
2022-09-18T14:47:22.240Z,2.90
2022-09-18T14:49:49.473Z,1.90
2022-09-18T14:52:30.104Z,2.33
2022-09-18T14:54:59.392Z,2.08
2022-09-18T14:57:31.959Z,1.60
2022-09-18T15:00:01.268Z,1.43
2022-09-18T15:02:32.917Z,1.77
2022-09-18T15:05:01.352Z,1.80
2022-09-18T15:07:27.916Z,1.85
2022-09-18T15:09:57.391Z,1.52
2022-09-18T15:12:25.436Z,1.90
2022-09-18T15:14:51.883Z,2.10
2022-09-18T15:17:23.757Z,1.70
2022-09-18T15:20:09.358Z,2.13
2022-09-18T15:22:35.882Z,1.58
2022-09-18T15:25:02.327Z,2.37
2022-09-18T15:27:30.284Z,1.50
2022-09-18T15:30:02.412Z,2.80
2022-09-18T15:32:37.746Z,1.80
2022-09-18T15:35:06.286Z,2.35
2022-09-18T15:37:32.724Z,2.13
2022-09-18T15:40:04.116Z,2.25
2022-09-18T15:42:36.586Z,1.90
2022-09-18T15:45:02.959Z,1.70
2022-09-18T15:47:30.378Z,1.90
2022-09-18T15:49:57.939Z,1.70
2022-09-18T15:52:59.869Z,2.33
2022-09-18T15:55:29.718Z,1.90
2022-09-18T15:58:02.462Z,1.63
2022-09-18T16:00:31.435Z,2.30
2022-09-18T16:03:07.330Z,2.17
2022-09-18T16:05:35.266Z,1.60
2022-09-18T16:08:15.768Z,1.55
2022-09-18T16:10:42.139Z,1.70
2022-09-18T16:13:11.600Z,1.60
2022-09-18T16:15:38.001Z,1.93
2022-09-18T16:18:16.503Z,1.70
2022-09-18T16:21:00.212Z,2.20
2022-09-18T16:23:36.826Z,2.33
2022-09-18T16:26:34.519Z,2.20
2022-09-18T16:29:13.277Z,2.50
2022-09-18T16:31:39.779Z,1.80
2022-09-18T16:34:27.332Z,1.80
2022-09-18T16:36:54.476Z,2.10
2022-09-18T16:39:23.478Z,1.35
2022-09-18T16:41:50.123Z,1.40
2022-09-18T16:44:18.323Z,1.50
2022-09-18T16:46:50.625Z,1.90
2022-09-18T16:49:21.661Z,1.50
2022-09-18T16:51:48.395Z,1.80
2022-09-18T16:54:14.834Z,1.63
2022-09-18T16:56:46.799Z,2.15
2022-09-18T16:59:13.422Z,2.20
2022-09-18T17:02:00.375Z,1.90
2022-09-18T17:04:27.222Z,1.42
2022-09-18T17:06:54.011Z,1.70
2022-09-18T17:09:20.924Z,2.50
2022-09-18T17:11:47.369Z,1.70
2022-09-18T17:14:13.756Z,2.17
2022-09-18T17:16:44.835Z,2.22
2022-09-18T17:19:12.274Z,1.50
2022-09-18T17:21:39.218Z,2.67
2022-09-18T17:24:06.210Z,1.55
2022-09-18T17:26:35.198Z,2.03
2022-09-18T17:29:01.635Z,2.97
2022-09-18T17:31:28.260Z,2.30
2022-09-18T17:33:55.940Z,2.25
2022-09-18T17:36:22.530Z,2.70
2022-09-18T17:38:49.190Z,3.50
2022-09-18T17:41:18.060Z,3.00
2022-09-18T17:43:44.538Z,2.80
2022-09-18T17:46:13.113Z,2.42
2022-09-18T17:48:39.917Z,2.42
2022-09-18T17:51:12.310Z,2.42
2022-09-18T17:53:40.358Z,2.90
2022-09-18T17:56:09.729Z,2.90
2022-09-18T17:58:36.308Z,2.70
2022-09-18T18:01:09.290Z,3.10
2022-09-18T18:03:35.768Z,3.10
2022-09-18T18:06:03.226Z,3.80
2022-09-18T18:08:30.406Z,4.27
2022-09-18T18:11:03.834Z,5.20
2022-09-18T18:13:30.351Z,6.65
2022-09-18T18:16:09.329Z,5.88
2022-09-18T18:18:36.836Z,5.88
2022-09-18T18:21:05.226Z,1.77
2022-09-18T18:23:32.300Z,1.50
2022-09-18T18:26:05.931Z,1.77
2022-09-18T18:28:33.337Z,1.98
2022-09-18T18:31:01.406Z,2.30
2022-09-18T18:33:27.880Z,2.20
2022-09-18T18:35:54.315Z,2.00
2022-09-18T18:38:20.732Z,1.95
2022-09-18T18:40:47.176Z,2.00
2022-09-18T18:43:13.618Z,2.00
2022-09-18T18:45:49.991Z,2.20
2022-09-18T18:48:16.366Z,2.10
2022-09-18T18:50:42.760Z,3.65
2022-09-18T18:53:09.146Z,4.40
2022-09-18T18:55:35.622Z,3.45
2022-09-18T18:58:02.085Z,2.50
2022-09-18T19:00:28.511Z,2.70
2022-09-18T19:02:55.151Z,2.53
2022-09-18T19:05:21.594Z,2.38
2022-09-18T19:07:48.124Z,2.20
2022-09-18T19:10:14.627Z,1.73
2022-09-18T19:12:41.002Z,2.05
2022-09-18T19:15:07.886Z,1.90
2022-09-18T19:17:34.291Z,1.95
2022-09-18T19:20:00.757Z,1.80
2022-09-18T19:22:27.156Z,1.60
2022-09-18T19:24:53.559Z,1.50
2022-09-18T19:27:19.987Z,1.88
2022-09-18T19:29:48.639Z,2.17
2022-09-18T19:32:15.028Z,1.85
2022-09-18T19:34:41.401Z,2.37
2022-09-18T19:37:11.707Z,2.47
2022-09-18T19:39:38.973Z,2.85
2022-09-18T19:42:13.850Z,2.63
2022-09-18T19:44:54.846Z,8.00
2022-09-18T19:47:26.560Z,13.13
2022-09-18T19:49:53.945Z,14.45
2022-09-18T19:52:22.924Z,15.98
2022-09-18T19:54:51.272Z,10.10
2022-09-18T19:57:19.379Z,8.05
2022-09-18T19:59:46.154Z,8.47
2022-09-18T20:02:14.765Z,7.53
2022-09-18T20:04:41.307Z,5.57
2022-09-18T20:07:08.169Z,5.63
2022-09-18T20:09:34.603Z,4.97
2022-09-18T20:12:01.182Z,5.57
2022-09-18T20:14:28.189Z,6.03
2022-09-18T20:16:55.573Z,3.95
2022-09-18T20:19:23.236Z,3.65
2022-09-18T20:21:49.806Z,3.40
2022-09-18T20:24:17.267Z,2.90
2022-09-18T20:26:44.089Z,2.75
2022-09-18T20:29:15.273Z,3.05
2022-09-18T20:31:42.426Z,3.42
2022-09-18T20:34:09.357Z,2.90
2022-09-18T20:36:35.780Z,2.63
2022-09-18T20:39:02.215Z,2.70
2022-09-18T20:41:29.053Z,3.20
2022-09-18T20:44:00.144Z,2.60
2022-09-18T20:46:26.666Z,2.70
2022-09-18T20:48:53.168Z,2.70
2022-09-18T20:51:19.654Z,2.60
2022-09-18T20:53:46.195Z,2.30
2022-09-18T20:56:14.247Z,1.83
2022-09-18T20:58:41.113Z,2.08
2022-09-18T21:01:08.224Z,2.43
2022-09-18T21:03:39.647Z,2.20
2022-09-18T21:06:21.905Z,2.05
2022-09-18T21:08:51.155Z,1.60
2022-09-18T21:11:28.951Z,1.88
2022-09-18T21:13:57.845Z,2.20
2022-09-18T21:16:26.104Z,1.70
2022-09-18T21:18:54.021Z,2.10
2022-09-18T21:21:20.524Z,1.80
2022-09-18T21:23:47.098Z,1.85
2022-09-18T21:26:17.472Z,2.00
2022-09-18T21:28:44.157Z,2.03
2022-09-18T21:31:11.476Z,2.17
2022-09-18T21:33:39.891Z,2.20
2022-09-18T21:36:06.352Z,2.40
2022-09-18T21:38:32.960Z,2.40
2022-09-18T21:41:03.964Z,2.60
2022-09-18T21:43:31.662Z,2.40
2022-09-18T21:46:09.470Z,2.50
2022-09-18T21:48:35.931Z,2.80
2022-09-18T21:51:07.314Z,2.47
2022-09-18T21:53:34.568Z,2.65
2022-09-18T21:56:06.034Z,2.60
2022-09-18T21:58:34.691Z,3.05
2022-09-18T22:01:10.385Z,3.17
2022-09-18T22:03:36.804Z,2.50
2022-09-18T22:06:03.211Z,2.40
2022-09-18T22:08:30.601Z,2.00
2022-09-18T22:11:02.027Z,2.53
2022-09-18T22:13:31.589Z,1.92
2022-09-18T22:15:59.084Z,2.13
2022-09-18T22:18:26.591Z,2.17
2022-09-18T22:20:53.797Z,2.03
2022-09-18T22:23:20.225Z,2.00
2022-09-18T22:25:46.698Z,2.25
2022-09-18T22:28:13.094Z,1.83
2022-09-18T22:30:39.482Z,2.00
2022-09-18T22:33:05.893Z,2.28
2022-09-18T22:35:32.861Z,1.70
2022-09-18T22:37:59.295Z,1.70
2022-09-18T22:40:26.165Z,1.50
2022-09-18T22:42:52.620Z,1.55
2022-09-18T22:45:21.893Z,2.10
2022-09-18T22:47:48.275Z,1.90
2022-09-18T22:50:14.662Z,2.10
2022-09-18T22:52:41.025Z,2.10
2022-09-18T22:55:07.805Z,2.80
2022-09-18T22:57:34.216Z,2.25
2022-09-18T23:00:00.639Z,2.00
2022-09-18T23:02:27.073Z,2.30
2022-09-18T23:04:53.534Z,2.10
2022-09-18T23:07:20.004Z,2.05
2022-09-18T23:09:47.395Z,2.00
2022-09-18T23:12:13.818Z,1.77
2022-09-18T23:14:40.241Z,3.08
2022-09-18T23:17:06.645Z,8.30
2022-09-18T23:19:34.379Z,12.93
2022-09-18T23:22:01.546Z,15.55
2022-09-18T23:24:28.206Z,9.98
2022-09-18T23:26:56.926Z,6.30
2022-09-18T23:29:25.237Z,5.73
2022-09-18T23:31:53.546Z,4.53
2022-09-18T23:34:22.577Z,2.40
2022-09-18T23:36:52.040Z,2.10
2022-09-18T23:39:19.804Z,2.40
2022-09-18T23:41:46.297Z,2.87
2022-09-18T23:44:15.031Z,2.65
2022-09-18T23:46:42.356Z,2.58
2022-09-18T23:49:09.835Z,2.13
2022-09-18T23:51:38.727Z,2.10
2022-09-18T23:54:07.109Z,2.70
2022-09-18T23:56:34.925Z,3.00
2022-09-18T23:59:04.100Z,3.30
